Neuburg — 5BQJ2 — position and weather

sailwx.info

Track history (hours):
 
Tides and Currents Weather Stations Pressure Air Temp Water Temp Dewpoint Dewpoint Depression Visibility Wind Speed Wind Dir Waves Ship Positions

Neuburg

Last reported at 2016-Aug-28 02:09 UTC. Time now 2016-Aug-28 08:40 UTC.
Position N 36°26' W 002°42'.

Length 142 m; draft 7.1 m.

Type: Cargo ship. MMSI: 212740000.

Date/timePositionNaut miles runAvg speedWind from/ knotsBaromVisibWave heightAir tempDewpointWater temp
2016-Aug-28 02:09N 36°26' W 002°42'1016.6
2016-Aug-28 01:33N 36°26' W 002°30'4915.9
2016-Aug-27 22:29N 36°50' W 001°37'1516.5
2016-Aug-27 21:33N 37°00' W 001°22'1916.5
2016-Aug-27 20:22N 37°13' W 001°04'1416.5
2016-Aug-27 19:33N 37°22' W 000°51'1616.1
2016-Aug-27 18:33N 37°33' W 000°36'1515.5
2016-Aug-27 17:33N 37°47' W 000°30'1615.8
2016-Aug-27 16:33N 38°03' W 000°26'92 6.9
2016-Aug-27 03:18N 39°15' E 000°46'3616.6
2016-Aug-27 01:07N 39°47' E 001°08'916.9
2016-Aug-27 00:34N 39°55' E 001°14'1716.9
2016-Aug-26 23:33N 40°10' E 001°24'1717.0
2016-Aug-26 22:33N 40°25' E 001°34'1716.9
2016-Aug-26 21:34N 40°40' E 001°45'1716.8
2016-Aug-26 20:33N 40°55' E 001°55'1716.9
2016-Aug-26 19:33N 41°10' E 002°06'12 5.3
2016-Aug-26 17:19N 41°21' E 002°10'0 0.0
2016-Aug-26 16:31N 41°21' E 002°10'0 0.0
2016-Aug-26 15:31N 41°21' E 002°10'0 0.0
2016-Aug-26 13:25N 41°21' E 002°10'0 0.0
2016-Aug-26 12:31N 41°21' E 002°10'2 0.2
2016-Aug-26 04:10N 41°20' E 002°12'0 0.0
2016-Aug-26 02:22N 41°20' E 002°12'0 0.0
2016-Aug-26 01:28N 41°20' E 002°12'0 0.1
2016-Aug-26 00:16N 41°20' E 002°11'0 0.1
2016-Aug-25 23:31N 41°20' E 002°11'0 0.0
2016-Aug-25 22:31N 41°20' E 002°12'0 0.1
2016-Aug-25 21:31N 41°20' E 002°11'0 0.0
2016-Aug-25 20:28N 41°20' E 002°11'0 0.0
2016-Aug-25 19:16N 41°20' E 002°11'0 0.0
2016-Aug-25 17:16N 41°20' E 002°11'0 0.0
2016-Aug-25 15:28N 41°20' E 002°11'0 0.1
2016-Aug-25 14:16N 41°20' E 002°12'0 0.0
2016-Aug-25 12:28N 41°20' E 002°12'0 0.0
2016-Aug-25 10:28N 41°20' E 002°12'0 0.1
2016-Aug-25 09:04N 41°20' E 002°11'0 0.1
2016-Aug-25 08:28N 41°20' E 002°11'0 0.0
2016-Aug-25 07:22N 41°20' E 002°11'0 0.0
2016-Aug-25 03:27N 41°20' E 002°12'0 0.1
2016-Aug-25 02:21N 41°20' E 002°12'0 0.0
2016-Aug-25 01:33N 41°20' E 002°12'0 0.0
2016-Aug-24 23:21N 41°20' E 002°12'0 0.0
2016-Aug-24 22:33N 41°20' E 002°12'0 0.0
2016-Aug-24 21:12N 41°20' E 002°12'0 0.0
2016-Aug-24 20:27N 41°20' E 002°12'0 0.0
2016-Aug-24 19:15N 41°20' E 002°12'0 0.0
2016-Aug-24 18:33N 41°20' E 002°11'0 0.0
2016-Aug-24 17:09N 41°20' E 002°12'0 0.0
2016-Aug-24 16:33N 41°20' E 002°12'0 0.0
2016-Aug-24 13:15N 41°20' E 002°12'0 0.1
2016-Aug-24 12:33N 41°20' E 002°11'0 0.0
2016-Aug-24 10:15N 41°20' E 002°11'0 0.1
2016-Aug-24 09:27N 41°20' E 002°12'0 0.0
2016-Aug-24 08:33N 41°20' E 002°12'0 0.0
2016-Aug-24 07:27N 41°20' E 002°12'0 0.0
2016-Aug-24 04:33N 41°20' E 002°12'0 0.0
2016-Aug-24 02:15N 41°20' E 002°12'0 0.0
2016-Aug-24 01:27N 41°20' E 002°12'0 0.0
2016-Aug-24 00:27N 41°20' E 002°12'0 0.0
2016-Aug-23 23:30N 41°20' E 002°12'0 0.0
2016-Aug-23 22:33N 41°20' E 002°12'2 1.5
2016-Aug-23 21:30N 41°21' E 002°10'0 0.1
2016-Aug-23 19:30N 41°21' E 002°10'0 0.0
2016-Aug-23 18:12N 41°21' E 002°10'0 0.0
2016-Aug-23 15:24N 41°21' E 002°10'0 0.0
2016-Aug-23 12:04N 41°21' E 002°10'2 4.6
2016-Aug-23 11:33N 41°19' E 002°10'1010.2
2016-Aug-23 10:33N 41°09' E 002°08'1716.9
2016-Aug-23 09:33N 40°54' E 001°56'1717.0
2016-Aug-23 08:33N 40°39' E 001°46'1716.9
2016-Aug-23 07:33N 40°24' E 001°35'1716.9
2016-Aug-23 06:33N 40°09' E 001°25'1716.9
2016-Aug-23 05:33N 39°54' E 001°15'10016.5
2016-Aug-22 23:29N 38°30' E 000°06'1817.0
2016-Aug-22 22:27N 38°22' W 000°14'20 2.8
2016-Aug-22 15:13N 38°04' W 000°25'1217.2
2016-Aug-22 14:31N 37°52' W 000°26'1616.8
2016-Aug-22 13:34N 37°36' W 000°30'1616.2
2016-Aug-22 12:33N 37°24' W 000°43'1616.4
2016-Aug-22 11:33N 37°13' W 000°59'22015.7
2016-Aug-21 21:33N 35°59' W 005°17'2318.6
2016-Aug-21 20:18N 35°53' W 005°45'7816.3
2016-Aug-21 15:29N 35°05' W 007°00'1916.7
2016-Aug-21 14:21N 34°53' W 007°18'42615.7
2016-Aug-20 11:15N 30°17' W 013°43'2816.2
2016-Aug-20 09:32N 29°59' W 014°07'1616.2
2016-Aug-20 08:33N 29°49' W 014°21'1616.2
2016-Aug-20 07:33N 29°38' W 014°36'1616.3
2016-Aug-20 06:33N 29°28' W 014°50'1616.1
2016-Aug-20 05:33N 29°17' W 015°04'1616.1
2016-Aug-20 04:33N 29°07' W 015°18'1615.8
2016-Aug-20 03:33N 28°57' W 015°32'1616.1
2016-Aug-20 02:33N 28°46' W 015°46'1616.2
2016-Aug-20 01:33N 28°35' W 015°60'1413.2
2016-Aug-20 00:32N 28°29' W 016°13'0 0.1
2016-Aug-19 23:17N 28°29' W 016°13'0 0.0
2016-Aug-19 22:32N 28°29' W 016°13'0 0.0
2016-Aug-19 21:16N 28°29' W 016°13'0 0.0
2016-Aug-19 20:13N 28°29' W 016°13'0 0.0
2016-Aug-19 18:31N 28°29' W 016°13'0 0.2
2016-Aug-19 17:33N 28°29' W 016°14'10 9.7
2016-Aug-19 16:33N 28°25' W 016°04'1615.8
2016-Aug-19 15:33N 28°20' W 015°47'1616.4
2016-Aug-19 14:33N 28°14' W 015°29'7 7.1
2016-Aug-19 13:34N 28°08' W 015°25'0 0.0
2016-Aug-19 12:32N 28°08' W 015°25'0 0.0
2016-Aug-19 11:32N 28°08' W 015°25'0 0.0
2016-Aug-19 10:29N 28°08' W 015°25'0 0.0
2016-Aug-19 09:32N 28°08' W 015°25'0 0.0
2016-Aug-19 08:32N 28°08' W 015°25'0 0.0
2016-Aug-19 07:32N 28°08' W 015°25'0 0.0
2016-Aug-19 06:32N 28°08' W 015°25'0 0.0
2016-Aug-19 05:32N 28°08' W 015°25'0 0.0
2016-Aug-19 04:32N 28°08' W 015°25'0 0.0
2016-Aug-19 03:29N 28°08' W 015°25'0 0.0
2016-Aug-19 02:32N 28°08' W 015°25'0 0.0
2016-Aug-19 01:32N 28°08' W 015°25'0 0.0
2016-Aug-19 00:32N 28°08' W 015°25'0 0.0
2016-Aug-18 23:32N 28°08' W 015°25'0 0.0
2016-Aug-18 22:32N 28°08' W 015°25'0 0.0
2016-Aug-18 21:32N 28°08' W 015°25'0 0.0
2016-Aug-18 20:32N 28°08' W 015°25'0 0.0
2016-Aug-18 19:32N 28°08' W 015°25'0 0.0
2016-Aug-18 18:32N 28°08' W 015°25'0 0.0
2016-Aug-18 17:32N 28°08' W 015°25'0 0.0
2016-Aug-18 16:32N 28°08' W 015°25'0 0.0
2016-Aug-18 15:31N 28°08' W 015°25'0 0.0
2016-Aug-18 14:34N 28°08' W 015°25'5 5.1
2016-Aug-18 13:34N 28°09' W 015°19'1414.4
2016-Aug-18 12:34N 28°16' W 015°05'1514.7
2016-Aug-18 11:34N 28°24' W 014°51'1515.0
2016-Aug-18 10:34N 28°31' W 014°36'1514.6
2016-Aug-18 09:33N 28°38' W 014°21'1515.2
2016-Aug-18 08:33N 28°45' W 014°06'1514.8
2016-Aug-18 07:34N 28°49' W 013°50'1413.9
2016-Aug-18 06:33N 28°55' W 013°35'4 4.4
2016-Aug-18 05:33N 28°58' W 013°32'0 0.0
2016-Aug-18 04:33N 28°58' W 013°32'0 0.0
2016-Aug-18 03:30N 28°58' W 013°32'0 0.0
2016-Aug-18 02:33N 28°58' W 013°32'  
Track history (hours):
 
Tides and Currents Weather Stations Pressure Air Temp Water Temp Dewpoint Dewpoint Depression Visibility Wind Speed Wind Dir Waves Ship Positions

Neuburg

Last reported at 2016-Aug-28 02:09 UTC. Time now 2016-Aug-28 08:40 UTC.
Position N 36°26' W 002°42'.

Length 142 m; draft 7.1 m.

Type: Cargo ship. MMSI: 212740000.

Date/timePositionNaut miles runAvg speedWind from/ knotsBaromVisibWave heightAir tempDewpointWater temp
2016-Aug-28 02:09N 36°26' W 002°42'1016.6
2016-Aug-28 01:33N 36°26' W 002°30'4915.9
2016-Aug-27 22:29N 36°50' W 001°37'1516.5
2016-Aug-27 21:33N 37°00' W 001°22'1916.5
2016-Aug-27 20:22N 37°13' W 001°04'1416.5
2016-Aug-27 19:33N 37°22' W 000°51'1616.1
2016-Aug-27 18:33N 37°33' W 000°36'1515.5
2016-Aug-27 17:33N 37°47' W 000°30'1615.8
2016-Aug-27 16:33N 38°03' W 000°26'92 6.9
2016-Aug-27 03:18N 39°15' E 000°46'3616.6
2016-Aug-27 01:07N 39°47' E 001°08'916.9
2016-Aug-27 00:34N 39°55' E 001°14'1716.9
2016-Aug-26 23:33N 40°10' E 001°24'1717.0
2016-Aug-26 22:33N 40°25' E 001°34'1716.9
2016-Aug-26 21:34N 40°40' E 001°45'1716.8
2016-Aug-26 20:33N 40°55' E 001°55'1716.9
2016-Aug-26 19:33N 41°10' E 002°06'12 5.3
2016-Aug-26 17:19N 41°21' E 002°10'0 0.0
2016-Aug-26 16:31N 41°21' E 002°10'0 0.0
2016-Aug-26 15:31N 41°21' E 002°10'0 0.0
2016-Aug-26 13:25N 41°21' E 002°10'0 0.0
2016-Aug-26 12:31N 41°21' E 002°10'2 0.2
2016-Aug-26 04:10N 41°20' E 002°12'0 0.0
2016-Aug-26 02:22N 41°20' E 002°12'0 0.0
2016-Aug-26 01:28N 41°20' E 002°12'0 0.1
2016-Aug-26 00:16N 41°20' E 002°11'0 0.1
2016-Aug-25 23:31N 41°20' E 002°11'0 0.0
2016-Aug-25 22:31N 41°20' E 002°12'0 0.1
2016-Aug-25 21:31N 41°20' E 002°11'0 0.0
2016-Aug-25 20:28N 41°20' E 002°11'0 0.0
2016-Aug-25 19:16N 41°20' E 002°11'0 0.0
2016-Aug-25 17:16N 41°20' E 002°11'0 0.0
2016-Aug-25 15:28N 41°20' E 002°11'0 0.1
2016-Aug-25 14:16N 41°20' E 002°12'0 0.0
2016-Aug-25 12:28N 41°20' E 002°12'0 0.0
2016-Aug-25 10:28N 41°20' E 002°12'0 0.1
2016-Aug-25 09:04N 41°20' E 002°11'0 0.1
2016-Aug-25 08:28N 41°20' E 002°11'0 0.0
2016-Aug-25 07:22N 41°20' E 002°11'0 0.0
2016-Aug-25 03:27N 41°20' E 002°12'0 0.1
2016-Aug-25 02:21N 41°20' E 002°12'0 0.0
2016-Aug-25 01:33N 41°20' E 002°12'0 0.0
2016-Aug-24 23:21N 41°20' E 002°12'0 0.0
2016-Aug-24 22:33N 41°20' E 002°12'0 0.0
2016-Aug-24 21:12N 41°20' E 002°12'0 0.0
2016-Aug-24 20:27N 41°20' E 002°12'0 0.0
2016-Aug-24 19:15N 41°20' E 002°12'0 0.0
2016-Aug-24 18:33N 41°20' E 002°11'0 0.0
2016-Aug-24 17:09N 41°20' E 002°12'0 0.0
2016-Aug-24 16:33N 41°20' E 002°12'0 0.0
2016-Aug-24 13:15N 41°20' E 002°12'0 0.1
2016-Aug-24 12:33N 41°20' E 002°11'0 0.0
2016-Aug-24 10:15N 41°20' E 002°11'0 0.1
2016-Aug-24 09:27N 41°20' E 002°12'0 0.0
2016-Aug-24 08:33N 41°20' E 002°12'0 0.0
2016-Aug-24 07:27N 41°20' E 002°12'0 0.0
2016-Aug-24 04:33N 41°20' E 002°12'0 0.0
2016-Aug-24 02:15N 41°20' E 002°12'0 0.0
2016-Aug-24 01:27N 41°20' E 002°12'0 0.0
2016-Aug-24 00:27N 41°20' E 002°12'0 0.0
2016-Aug-23 23:30N 41°20' E 002°12'0 0.0
2016-Aug-23 22:33N 41°20' E 002°12'2 1.5
2016-Aug-23 21:30N 41°21' E 002°10'0 0.1
2016-Aug-23 19:30N 41°21' E 002°10'0 0.0
2016-Aug-23 18:12N 41°21' E 002°10'0 0.0
2016-Aug-23 15:24N 41°21' E 002°10'0 0.0
2016-Aug-23 12:04N 41°21' E 002°10'2 4.6
2016-Aug-23 11:33N 41°19' E 002°10'1010.2
2016-Aug-23 10:33N 41°09' E 002°08'1716.9
2016-Aug-23 09:33N 40°54' E 001°56'1717.0
2016-Aug-23 08:33N 40°39' E 001°46'1716.9
2016-Aug-23 07:33N 40°24' E 001°35'1716.9
2016-Aug-23 06:33N 40°09' E 001°25'1716.9
2016-Aug-23 05:33N 39°54' E 001°15'10016.5
2016-Aug-22 23:29N 38°30' E 000°06'1817.0
2016-Aug-22 22:27N 38°22' W 000°14'20 2.8
2016-Aug-22 15:13N 38°04' W 000°25'1217.2
2016-Aug-22 14:31N 37°52' W 000°26'1616.8
2016-Aug-22 13:34N 37°36' W 000°30'1616.2
2016-Aug-22 12:33N 37°24' W 000°43'1616.4
2016-Aug-22 11:33N 37°13' W 000°59'22015.7
2016-Aug-21 21:33N 35°59' W 005°17'2318.6
2016-Aug-21 20:18N 35°53' W 005°45'7816.3
2016-Aug-21 15:29N 35°05' W 007°00'1916.7
2016-Aug-21 14:21N 34°53' W 007°18'42615.7
2016-Aug-20 11:15N 30°17' W 013°43'2816.2
2016-Aug-20 09:32N 29°59' W 014°07'1616.2
2016-Aug-20 08:33N 29°49' W 014°21'1616.2
2016-Aug-20 07:33N 29°38' W 014°36'1616.3
2016-Aug-20 06:33N 29°28' W 014°50'1616.1
2016-Aug-20 05:33N 29°17' W 015°04'1616.1
2016-Aug-20 04:33N 29°07' W 015°18'1615.8
2016-Aug-20 03:33N 28°57' W 015°32'1616.1
2016-Aug-20 02:33N 28°46' W 015°46'1616.2
2016-Aug-20 01:33N 28°35' W 015°60'1413.2
2016-Aug-20 00:32N 28°29' W 016°13'0 0.1
2016-Aug-19 23:17N 28°29' W 016°13'0 0.0
2016-Aug-19 22:32N 28°29' W 016°13'0 0.0
2016-Aug-19 21:16N 28°29' W 016°13'0 0.0
2016-Aug-19 20:13N 28°29' W 016°13'0 0.0
2016-Aug-19 18:31N 28°29' W 016°13'0 0.2
2016-Aug-19 17:33N 28°29' W 016°14'10 9.7
2016-Aug-19 16:33N 28°25' W 016°04'1615.8
2016-Aug-19 15:33N 28°20' W 015°47'1616.4
2016-Aug-19 14:33N 28°14' W 015°29'7 7.1
2016-Aug-19 13:34N 28°08' W 015°25'0 0.0
2016-Aug-19 12:32N 28°08' W 015°25'0 0.0
2016-Aug-19 11:32N 28°08' W 015°25'0 0.0
2016-Aug-19 10:29N 28°08' W 015°25'0 0.0
2016-Aug-19 09:32N 28°08' W 015°25'0 0.0
2016-Aug-19 08:32N 28°08' W 015°25'0 0.0
2016-Aug-19 07:32N 28°08' W 015°25'0 0.0
2016-Aug-19 06:32N 28°08' W 015°25'0 0.0
2016-Aug-19 05:32N 28°08' W 015°25'0 0.0
2016-Aug-19 04:32N 28°08' W 015°25'0 0.0
2016-Aug-19 03:29N 28°08' W 015°25'0 0.0
2016-Aug-19 02:32N 28°08' W 015°25'0 0.0
2016-Aug-19 01:32N 28°08' W 015°25'0 0.0
2016-Aug-19 00:32N 28°08' W 015°25'0 0.0
2016-Aug-18 23:32N 28°08' W 015°25'0 0.0
2016-Aug-18 22:32N 28°08' W 015°25'0 0.0
2016-Aug-18 21:32N 28°08' W 015°25'0 0.0
2016-Aug-18 20:32N 28°08' W 015°25'0 0.0
2016-Aug-18 19:32N 28°08' W 015°25'0 0.0
2016-Aug-18 18:32N 28°08' W 015°25'0 0.0
2016-Aug-18 17:32N 28°08' W 015°25'0 0.0
2016-Aug-18 16:32N 28°08' W 015°25'0 0.0
2016-Aug-18 15:31N 28°08' W 015°25'0 0.0
2016-Aug-18 14:34N 28°08' W 015°25'5 5.1
2016-Aug-18 13:34N 28°09' W 015°19'1414.4
2016-Aug-18 12:34N 28°16' W 015°05'1514.7
2016-Aug-18 11:34N 28°24' W 014°51'1515.0
2016-Aug-18 10:34N 28°31' W 014°36'1514.6
2016-Aug-18 09:33N 28°38' W 014°21'1515.2
2016-Aug-18 08:33N 28°45' W 014°06'1514.8
2016-Aug-18 07:34N 28°49' W 013°50'1413.9
2016-Aug-18 06:33N 28°55' W 013°35'4 4.4
2016-Aug-18 05:33N 28°58' W 013°32'0 0.0
2016-Aug-18 04:33N 28°58' W 013°32'0 0.0
2016-Aug-18 03:30N 28°58' W 013°32'0 0.0
2016-Aug-18 02:33N 28°58' W 013°32'  

Dump ship's entire track history